sensor_id;sensor_type;location;lat;lon;timestamp;P1;durP1;ratioP1;P2;durP2;ratioP2
13698;SDS011;6921;53.642;9.956;2022-10-16T00:01:36;8.73;;;6.57;;
13698;SDS011;6921;53.642;9.956;2022-10-16T00:03:41;10.90;;;7.45;;
13698;SDS011;6921;53.642;9.956;2022-10-16T00:05:45;10.07;;;7.43;;
13698;SDS011;6921;53.642;9.956;2022-10-16T00:07:48;9.95;;;6.95;;
13698;SDS011;6921;53.642;9.956;2022-10-16T00:09:51;10.38;;;7.38;;
13698;SDS011;6921;53.642;9.956;2022-10-16T00:11:54;8.95;;;6.93;;
13698;SDS011;6921;53.642;9.956;2022-10-16T00:13:59;8.82;;;6.25;;
13698;SDS011;6921;53.642;9.956;2022-10-16T00:16:03;8.90;;;6.93;;
13698;SDS011;6921;53.642;9.956;2022-10-16T00:18:07;8.60;;;6.55;;
13698;SDS011;6921;53.642;9.956;2022-10-16T00:20:11;9.40;;;6.82;;
13698;SDS011;6921;53.642;9.956;2022-10-16T00:22:14;9.82;;;6.25;;
13698;SDS011;6921;53.642;9.956;2022-10-16T00:24:17;6.90;;;5.55;;
13698;SDS011;6921;53.642;9.956;2022-10-16T00:26:21;9.68;;;6.10;;
13698;SDS011;6921;53.642;9.956;2022-10-16T00:28:25;8.13;;;5.82;;
13698;SDS011;6921;53.642;9.956;2022-10-16T00:30:28;7.93;;;5.45;;
13698;SDS011;6921;53.642;9.956;2022-10-16T00:32:31;7.00;;;5.30;;
13698;SDS011;6921;53.642;9.956;2022-10-16T00:34:34;7.43;;;5.72;;
13698;SDS011;6921;53.642;9.956;2022-10-16T00:36:39;8.38;;;5.30;;
13698;SDS011;6921;53.642;9.956;2022-10-16T00:38:42;6.60;;;5.13;;
13698;SDS011;6921;53.642;9.956;2022-10-16T00:40:45;7.32;;;4.93;;
13698;SDS011;6921;53.642;9.956;2022-10-16T00:42:48;6.45;;;4.65;;
13698;SDS011;6921;53.642;9.956;2022-10-16T00:44:52;6.85;;;4.18;;
13698;SDS011;6921;53.642;9.956;2022-10-16T00:46:57;6.80;;;4.18;;
13698;SDS011;6921;53.642;9.956;2022-10-16T00:49:05;4.30;;;3.72;;
13698;SDS011;6921;53.642;9.956;2022-10-16T00:51:10;5.15;;;4.03;;
13698;SDS011;6921;53.642;9.956;2022-10-16T00:53:14;6.80;;;3.92;;
13698;SDS011;6921;53.642;9.956;2022-10-16T00:55:18;4.95;;;3.75;;
13698;SDS011;6921;53.642;9.956;2022-10-16T00:57:22;5.25;;;3.33;;
13698;SDS011;6921;53.642;9.956;2022-10-16T00:59:27;5.10;;;3.08;;
13698;SDS011;6921;53.642;9.956;2022-10-16T01:01:32;4.97;;;2.78;;
13698;SDS011;6921;53.642;9.956;2022-10-16T01:03:36;4.53;;;3.05;;
13698;SDS011;6921;53.642;9.956;2022-10-16T01:05:40;7.22;;;3.00;;
13698;SDS011;6921;53.642;9.956;2022-10-16T01:07:53;4.20;;;2.72;;
13698;SDS011;6921;53.642;9.956;2022-10-16T01:10:05;3.30;;;2.63;;
13698;SDS011;6921;53.642;9.956;2022-10-16T01:12:12;5.55;;;2.80;;
13698;SDS011;6921;53.642;9.956;2022-10-16T01:14:21;5.40;;;2.42;;
13698;SDS011;6921;53.642;9.956;2022-10-16T01:16:29;5.70;;;2.45;;
13698;SDS011;6921;53.642;9.956;2022-10-16T01:18:42;3.88;;;2.65;;
13698;SDS011;6921;53.642;9.956;2022-10-16T01:20:49;2.53;;;2.28;;
13698;SDS011;6921;53.642;9.956;2022-10-16T01:23:00;2.50;;;2.03;;
13698;SDS011;6921;53.642;9.956;2022-10-16T01:25:11;2.47;;;2.28;;
13698;SDS011;6921;53.642;9.956;2022-10-16T01:27:22;4.30;;;2.20;;
13698;SDS011;6921;53.642;9.956;2022-10-16T01:29:29;4.60;;;2.30;;
13698;SDS011;6921;53.642;9.956;2022-10-16T01:31:37;5.32;;;2.60;;
13698;SDS011;6921;53.642;9.956;2022-10-16T01:33:44;5.50;;;2.55;;
13698;SDS011;6921;53.642;9.956;2022-10-16T01:35:51;3.13;;;2.67;;
13698;SDS011;6921;53.642;9.956;2022-10-16T01:37:58;4.15;;;2.30;;
13698;SDS011;6921;53.642;9.956;2022-10-16T01:40:06;3.47;;;2.30;;
13698;SDS011;6921;53.642;9.956;2022-10-16T01:42:14;3.03;;;2.20;;
13698;SDS011;6921;53.642;9.956;2022-10-16T01:44:22;2.83;;;2.30;;
13698;SDS011;6921;53.642;9.956;2022-10-16T01:46:30;4.78;;;2.40;;
13698;SDS011;6921;53.642;9.956;2022-10-16T01:48:36;3.10;;;2.20;;
13698;SDS011;6921;53.642;9.956;2022-10-16T01:50:40;2.55;;;2.25;;
13698;SDS011;6921;53.642;9.956;2022-10-16T01:52:47;3.78;;;2.13;;
13698;SDS011;6921;53.642;9.956;2022-10-16T01:54:52;4.15;;;2.85;;
13698;SDS011;6921;53.642;9.956;2022-10-16T01:56:57;4.53;;;2.17;;
13698;SDS011;6921;53.642;9.956;2022-10-16T01:59:01;3.05;;;2.10;;
13698;SDS011;6921;53.642;9.956;2022-10-16T02:01:09;3.45;;;2.72;;
13698;SDS011;6921;53.642;9.956;2022-10-16T02:03:20;3.00;;;2.60;;
13698;SDS011;6921;53.642;9.956;2022-10-16T02:05:24;3.25;;;2.10;;
13698;SDS011;6921;53.642;9.956;2022-10-16T02:07:30;2.70;;;2.30;;
13698;SDS011;6921;53.642;9.956;2022-10-16T02:09:33;3.45;;;2.22;;
13698;SDS011;6921;53.642;9.956;2022-10-16T02:11:37;6.10;;;2.17;;
13698;SDS011;6921;53.642;9.956;2022-10-16T02:13:41;4.65;;;2.17;;
13698;SDS011;6921;53.642;9.956;2022-10-16T02:15:47;5.38;;;2.17;;
13698;SDS011;6921;53.642;9.956;2022-10-16T02:17:51;3.95;;;1.95;;
13698;SDS011;6921;53.642;9.956;2022-10-16T02:19:55;2.88;;;2.00;;
13698;SDS011;6921;53.642;9.956;2022-10-16T02:22:00;2.88;;;1.58;;
13698;SDS011;6921;53.642;9.956;2022-10-16T02:24:08;3.75;;;2.42;;
13698;SDS011;6921;53.642;9.956;2022-10-16T02:26:17;3.33;;;1.80;;
13698;SDS011;6921;53.642;9.956;2022-10-16T02:28:30;4.45;;;1.83;;
13698;SDS011;6921;53.642;9.956;2022-10-16T02:30:38;2.88;;;1.92;;
13698;SDS011;6921;53.642;9.956;2022-10-16T02:32:44;3.00;;;1.67;;
13698;SDS011;6921;53.642;9.956;2022-10-16T02:34:51;4.32;;;1.92;;
13698;SDS011;6921;53.642;9.956;2022-10-16T02:36:55;2.42;;;1.90;;
13698;SDS011;6921;53.642;9.956;2022-10-16T02:38:59;4.45;;;1.67;;
13698;SDS011;6921;53.642;9.956;2022-10-16T02:41:04;3.85;;;1.80;;
13698;SDS011;6921;53.642;9.956;2022-10-16T02:43:08;6.80;;;2.00;;
13698;SDS011;6921;53.642;9.956;2022-10-16T02:45:11;3.28;;;1.90;;
13698;SDS011;6921;53.642;9.956;2022-10-16T02:47:14;4.15;;;1.80;;
13698;SDS011;6921;53.642;9.956;2022-10-16T02:49:17;2.38;;;1.70;;
13698;SDS011;6921;53.642;9.956;2022-10-16T02:51:21;3.17;;;1.70;;
13698;SDS011;6921;53.642;9.956;2022-10-16T02:53:24;2.05;;;1.80;;
13698;SDS011;6921;53.642;9.956;2022-10-16T02:55:27;3.45;;;1.73;;
13698;SDS011;6921;53.642;9.956;2022-10-16T02:57:31;4.45;;;1.77;;
13698;SDS011;6921;53.642;9.956;2022-10-16T02:59:34;4.90;;;1.50;;
13698;SDS011;6921;53.642;9.956;2022-10-16T03:01:37;2.15;;;1.48;;
13698;SDS011;6921;53.642;9.956;2022-10-16T03:03:40;4.22;;;1.60;;
13698;SDS011;6921;53.642;9.956;2022-10-16T03:05:43;4.05;;;1.70;;
13698;SDS011;6921;53.642;9.956;2022-10-16T03:07:48;2.65;;;1.50;;
13698;SDS011;6921;53.642;9.956;2022-10-16T03:09:51;1.95;;;1.38;;
13698;SDS011;6921;53.642;9.956;2022-10-16T03:11:53;1.92;;;1.35;;
13698;SDS011;6921;53.642;9.956;2022-10-16T03:13:56;2.30;;;1.35;;
13698;SDS011;6921;53.642;9.956;2022-10-16T03:15:59;5.05;;;1.30;;
13698;SDS011;6921;53.642;9.956;2022-10-16T03:18:02;4.43;;;1.55;;
13698;SDS011;6921;53.642;9.956;2022-10-16T03:20:06;3.17;;;1.40;;
13698;SDS011;6921;53.642;9.956;2022-10-16T03:22:09;1.40;;;1.15;;
13698;SDS011;6921;53.642;9.956;2022-10-16T03:24:13;4.18;;;1.75;;
13698;SDS011;6921;53.642;9.956;2022-10-16T03:26:17;3.92;;;1.55;;
13698;SDS011;6921;53.642;9.956;2022-10-16T03:28:19;4.13;;;1.60;;
13698;SDS011;6921;53.642;9.956;2022-10-16T03:30:22;4.32;;;1.73;;
13698;SDS011;6921;53.642;9.956;2022-10-16T03:32:25;1.75;;;1.33;;
13698;SDS011;6921;53.642;9.956;2022-10-16T03:34:29;2.08;;;1.83;;
13698;SDS011;6921;53.642;9.956;2022-10-16T03:36:32;6.65;;;1.77;;
13698;SDS011;6921;53.642;9.956;2022-10-16T03:38:35;3.22;;;1.50;;
13698;SDS011;6921;53.642;9.956;2022-10-16T03:40:39;2.38;;;1.88;;
13698;SDS011;6921;53.642;9.956;2022-10-16T03:42:42;1.95;;;1.50;;
13698;SDS011;6921;53.642;9.956;2022-10-16T03:44:46;3.03;;;1.50;;
13698;SDS011;6921;53.642;9.956;2022-10-16T03:46:49;4.43;;;1.50;;
13698;SDS011;6921;53.642;9.956;2022-10-16T03:48:52;4.07;;;1.38;;
13698;SDS011;6921;53.642;9.956;2022-10-16T03:50:54;3.97;;;1.30;;
13698;SDS011;6921;53.642;9.956;2022-10-16T03:52:57;2.05;;;1.13;;
13698;SDS011;6921;53.642;9.956;2022-10-16T03:55:00;2.78;;;1.45;;
13698;SDS011;6921;53.642;9.956;2022-10-16T03:57:04;3.10;;;1.60;;
13698;SDS011;6921;53.642;9.956;2022-10-16T03:59:07;3.33;;;1.70;;
13698;SDS011;6921;53.642;9.956;2022-10-16T04:01:10;3.60;;;1.90;;
13698;SDS011;6921;53.642;9.956;2022-10-16T04:03:13;2.30;;;1.60;;
13698;SDS011;6921;53.642;9.956;2022-10-16T04:05:16;2.05;;;1.50;;
13698;SDS011;6921;53.642;9.956;2022-10-16T04:07:19;2.65;;;1.80;;
13698;SDS011;6921;53.642;9.956;2022-10-16T04:09:22;2.45;;;1.70;;
13698;SDS011;6921;53.642;9.956;2022-10-16T04:11:25;2.25;;;1.40;;
13698;SDS011;6921;53.642;9.956;2022-10-16T04:13:29;6.43;;;1.50;;
13698;SDS011;6921;53.642;9.956;2022-10-16T04:15:32;2.88;;;1.60;;
13698;SDS011;6921;53.642;9.956;2022-10-16T04:17:35;3.55;;;1.58;;
13698;SDS011;6921;53.642;9.956;2022-10-16T04:19:38;6.13;;;2.05;;
13698;SDS011;6921;53.642;9.956;2022-10-16T04:21:41;1.90;;;1.42;;
13698;SDS011;6921;53.642;9.956;2022-10-16T04:23:44;3.78;;;1.98;;
13698;SDS011;6921;53.642;9.956;2022-10-16T04:25:47;3.05;;;1.58;;
13698;SDS011;6921;53.642;9.956;2022-10-16T04:27:52;3.25;;;1.50;;
13698;SDS011;6921;53.642;9.956;2022-10-16T04:29:56;3.17;;;1.40;;
13698;SDS011;6921;53.642;9.956;2022-10-16T04:31:59;3.28;;;1.50;;
13698;SDS011;6921;53.642;9.956;2022-10-16T04:34:02;3.55;;;1.83;;
13698;SDS011;6921;53.642;9.956;2022-10-16T04:36:05;1.85;;;1.45;;
13698;SDS011;6921;53.642;9.956;2022-10-16T04:38:08;4.13;;;1.60;;
13698;SDS011;6921;53.642;9.956;2022-10-16T04:40:11;3.35;;;1.63;;
13698;SDS011;6921;53.642;9.956;2022-10-16T04:42:14;3.08;;;1.60;;
13698;SDS011;6921;53.642;9.956;2022-10-16T04:44:17;2.33;;;1.55;;
13698;SDS011;6921;53.642;9.956;2022-10-16T04:46:22;4.53;;;1.58;;
13698;SDS011;6921;53.642;9.956;2022-10-16T04:48:24;2.63;;;1.60;;
13698;SDS011;6921;53.642;9.956;2022-10-16T04:50:28;2.33;;;1.63;;
13698;SDS011;6921;53.642;9.956;2022-10-16T04:52:30;4.95;;;1.63;;
13698;SDS011;6921;53.642;9.956;2022-10-16T04:54:33;2.35;;;1.48;;
13698;SDS011;6921;53.642;9.956;2022-10-16T04:56:36;3.15;;;1.73;;
13698;SDS011;6921;53.642;9.956;2022-10-16T04:58:47;3.00;;;1.77;;
13698;SDS011;6921;53.642;9.956;2022-10-16T05:00:50;3.75;;;1.52;;
13698;SDS011;6921;53.642;9.956;2022-10-16T05:02:54;1.33;;;1.25;;
13698;SDS011;6921;53.642;9.956;2022-10-16T05:04:58;3.13;;;1.98;;
13698;SDS011;6921;53.642;9.956;2022-10-16T05:07:01;3.47;;;1.77;;
13698;SDS011;6921;53.642;9.956;2022-10-16T05:09:04;2.08;;;1.73;;
13698;SDS011;6921;53.642;9.956;2022-10-16T05:11:07;2.25;;;1.67;;
13698;SDS011;6921;53.642;9.956;2022-10-16T05:13:10;3.90;;;1.95;;
13698;SDS011;6921;53.642;9.956;2022-10-16T05:15:13;3.65;;;1.88;;
13698;SDS011;6921;53.642;9.956;2022-10-16T05:17:16;5.13;;;2.03;;
13698;SDS011;6921;53.642;9.956;2022-10-16T05:19:20;3.97;;;2.20;;
13698;SDS011;6921;53.642;9.956;2022-10-16T05:21:27;4.88;;;2.22;;
13698;SDS011;6921;53.642;9.956;2022-10-16T05:23:30;3.35;;;2.60;;
13698;SDS011;6921;53.642;9.956;2022-10-16T05:25:33;5.68;;;2.35;;
13698;SDS011;6921;53.642;9.956;2022-10-16T05:27:36;3.20;;;2.40;;
13698;SDS011;6921;53.642;9.956;2022-10-16T05:29:39;4.38;;;2.33;;
13698;SDS011;6921;53.642;9.956;2022-10-16T05:31:42;4.97;;;2.72;;
13698;SDS011;6921;53.642;9.956;2022-10-16T05:33:45;3.97;;;2.45;;
13698;SDS011;6921;53.642;9.956;2022-10-16T05:35:54;5.20;;;2.70;;
13698;SDS011;6921;53.642;9.956;2022-10-16T05:37:57;4.05;;;2.50;;
13698;SDS011;6921;53.642;9.956;2022-10-16T05:40:00;3.50;;;2.40;;
13698;SDS011;6921;53.642;9.956;2022-10-16T05:42:03;6.72;;;3.10;;
13698;SDS011;6921;53.642;9.956;2022-10-16T05:44:07;2.50;;;2.30;;
13698;SDS011;6921;53.642;9.956;2022-10-16T05:46:10;7.10;;;3.08;;
13698;SDS011;6921;53.642;9.956;2022-10-16T05:48:12;4.65;;;2.72;;
13698;SDS011;6921;53.642;9.956;2022-10-16T05:50:15;4.57;;;2.63;;
13698;SDS011;6921;53.642;9.956;2022-10-16T05:52:20;5.50;;;3.00;;
13698;SDS011;6921;53.642;9.956;2022-10-16T05:54:23;5.65;;;2.97;;
13698;SDS011;6921;53.642;9.956;2022-10-16T05:56:26;4.28;;;2.80;;
13698;SDS011;6921;53.642;9.956;2022-10-16T05:58:29;3.38;;;2.45;;
13698;SDS011;6921;53.642;9.956;2022-10-16T06:00:34;3.42;;;2.67;;
13698;SDS011;6921;53.642;9.956;2022-10-16T06:02:37;4.18;;;2.90;;
13698;SDS011;6921;53.642;9.956;2022-10-16T06:04:40;6.55;;;3.10;;
13698;SDS011;6921;53.642;9.956;2022-10-16T06:06:42;3.97;;;2.50;;
13698;SDS011;6921;53.642;9.956;2022-10-16T06:08:47;8.18;;;2.80;;
13698;SDS011;6921;53.642;9.956;2022-10-16T06:10:59;4.65;;;2.35;;
13698;SDS011;6921;53.642;9.956;2022-10-16T06:13:04;4.63;;;2.60;;
13698;SDS011;6921;53.642;9.956;2022-10-16T06:15:07;6.65;;;2.40;;
13698;SDS011;6921;53.642;9.956;2022-10-16T06:17:10;5.05;;;2.42;;
13698;SDS011;6921;53.642;9.956;2022-10-16T06:19:13;4.20;;;2.13;;
13698;SDS011;6921;53.642;9.956;2022-10-16T06:21:19;6.60;;;2.63;;
13698;SDS011;6921;53.642;9.956;2022-10-16T06:23:23;5.78;;;2.30;;
13698;SDS011;6921;53.642;9.956;2022-10-16T06:25:28;3.47;;;2.30;;
13698;SDS011;6921;53.642;9.956;2022-10-16T06:27:31;5.07;;;2.45;;
13698;SDS011;6921;53.642;9.956;2022-10-16T06:29:34;6.47;;;2.22;;
13698;SDS011;6921;53.642;9.956;2022-10-16T06:31:37;3.15;;;2.25;;
13698;SDS011;6921;53.642;9.956;2022-10-16T06:33:40;5.03;;;2.35;;
13698;SDS011;6921;53.642;9.956;2022-10-16T06:35:43;3.50;;;2.03;;
13698;SDS011;6921;53.642;9.956;2022-10-16T06:37:47;4.05;;;2.55;;
13698;SDS011;6921;53.642;9.956;2022-10-16T06:39:50;3.33;;;2.10;;
13698;SDS011;6921;53.642;9.956;2022-10-16T06:41:55;3.75;;;2.38;;
13698;SDS011;6921;53.642;9.956;2022-10-16T06:43:58;4.15;;;2.50;;
13698;SDS011;6921;53.642;9.956;2022-10-16T06:46:02;3.42;;;2.53;;
13698;SDS011;6921;53.642;9.956;2022-10-16T06:48:08;5.55;;;2.22;;
13698;SDS011;6921;53.642;9.956;2022-10-16T06:50:11;3.65;;;2.40;;
13698;SDS011;6921;53.642;9.956;2022-10-16T06:52:14;2.67;;;2.22;;
13698;SDS011;6921;53.642;9.956;2022-10-16T06:54:17;4.20;;;2.58;;
13698;SDS011;6921;53.642;9.956;2022-10-16T06:56:20;6.43;;;2.60;;
13698;SDS011;6921;53.642;9.956;2022-10-16T06:58:27;4.05;;;2.50;;
13698;SDS011;6921;53.642;9.956;2022-10-16T07:00:30;5.60;;;2.40;;
13698;SDS011;6921;53.642;9.956;2022-10-16T07:02:32;4.40;;;2.53;;
13698;SDS011;6921;53.642;9.956;2022-10-16T07:04:35;4.72;;;2.75;;
13698;SDS011;6921;53.642;9.956;2022-10-16T07:06:39;5.75;;;2.60;;
13698;SDS011;6921;53.642;9.956;2022-10-16T07:08:42;5.07;;;2.80;;
13698;SDS011;6921;53.642;9.956;2022-10-16T07:10:46;5.55;;;2.80;;
13698;SDS011;6921;53.642;9.956;2022-10-16T07:12:49;4.05;;;2.85;;
13698;SDS011;6921;53.642;9.956;2022-10-16T07:14:53;7.53;;;3.50;;
13698;SDS011;6921;53.642;9.956;2022-10-16T07:16:56;4.97;;;2.47;;
13698;SDS011;6921;53.642;9.956;2022-10-16T07:19:00;4.30;;;2.80;;
13698;SDS011;6921;53.642;9.956;2022-10-16T07:21:05;2.80;;;2.50;;
13698;SDS011;6921;53.642;9.956;2022-10-16T07:23:09;5.88;;;2.97;;
13698;SDS011;6921;53.642;9.956;2022-10-16T07:25:12;5.07;;;2.67;;
13698;SDS011;6921;53.642;9.956;2022-10-16T07:27:15;5.60;;;2.75;;
13698;SDS011;6921;53.642;9.956;2022-10-16T07:29:18;7.22;;;3.33;;
13698;SDS011;6921;53.642;9.956;2022-10-16T07:31:24;4.78;;;3.10;;
13698;SDS011;6921;53.642;9.956;2022-10-16T07:33:28;4.28;;;3.00;;
13698;SDS011;6921;53.642;9.956;2022-10-16T07:35:31;4.30;;;3.00;;
13698;SDS011;6921;53.642;9.956;2022-10-16T07:37:34;3.35;;;3.00;;
13698;SDS011;6921;53.642;9.956;2022-10-16T07:39:36;4.63;;;2.72;;
13698;SDS011;6921;53.642;9.956;2022-10-16T07:41:39;5.40;;;2.85;;
13698;SDS011;6921;53.642;9.956;2022-10-16T07:43:45;4.25;;;3.35;;
13698;SDS011;6921;53.642;9.956;2022-10-16T07:45:48;6.93;;;3.20;;
13698;SDS011;6921;53.642;9.956;2022-10-16T07:47:58;5.13;;;2.80;;
13698;SDS011;6921;53.642;9.956;2022-10-16T07:50:01;5.05;;;2.97;;
13698;SDS011;6921;53.642;9.956;2022-10-16T07:52:04;4.30;;;2.80;;
13698;SDS011;6921;53.642;9.956;2022-10-16T07:54:07;5.13;;;2.78;;
13698;SDS011;6921;53.642;9.956;2022-10-16T07:56:11;3.90;;;2.72;;
13698;SDS011;6921;53.642;9.956;2022-10-16T07:58:14;4.03;;;3.00;;
13698;SDS011;6921;53.642;9.956;2022-10-16T08:00:17;3.67;;;2.67;;
13698;SDS011;6921;53.642;9.956;2022-10-16T08:02:20;4.70;;;3.13;;
13698;SDS011;6921;53.642;9.956;2022-10-16T08:04:24;5.22;;;2.95;;
13698;SDS011;6921;53.642;9.956;2022-10-16T08:06:27;3.35;;;2.70;;
13698;SDS011;6921;53.642;9.956;2022-10-16T08:08:30;6.35;;;2.95;;
13698;SDS011;6921;53.642;9.956;2022-10-16T08:10:33;5.53;;;3.22;;
13698;SDS011;6921;53.642;9.956;2022-10-16T08:12:36;4.30;;;3.13;;
13698;SDS011;6921;53.642;9.956;2022-10-16T08:14:38;4.80;;;3.15;;
13698;SDS011;6921;53.642;9.956;2022-10-16T08:16:43;3.33;;;2.88;;
13698;SDS011;6921;53.642;9.956;2022-10-16T08:18:46;6.50;;;3.53;;
13698;SDS011;6921;53.642;9.956;2022-10-16T08:20:55;5.50;;;3.45;;
13698;SDS011;6921;53.642;9.956;2022-10-16T08:22:59;5.97;;;2.97;;
13698;SDS011;6921;53.642;9.956;2022-10-16T08:25:02;3.30;;;2.53;;
13698;SDS011;6921;53.642;9.956;2022-10-16T08:27:06;4.15;;;3.00;;
13698;SDS011;6921;53.642;9.956;2022-10-16T08:29:10;3.83;;;3.17;;
13698;SDS011;6921;53.642;9.956;2022-10-16T08:31:14;4.40;;;3.05;;
13698;SDS011;6921;53.642;9.956;2022-10-16T08:33:23;3.90;;;3.13;;
13698;SDS011;6921;53.642;9.956;2022-10-16T08:35:25;5.78;;;3.00;;
13698;SDS011;6921;53.642;9.956;2022-10-16T08:37:30;4.45;;;2.97;;
13698;SDS011;6921;53.642;9.956;2022-10-16T08:39:35;4.28;;;3.15;;
13698;SDS011;6921;53.642;9.956;2022-10-16T08:41:46;4.95;;;2.53;;
13698;SDS011;6921;53.642;9.956;2022-10-16T08:44:13;3.65;;;3.03;;
13698;SDS011;6921;53.642;9.956;2022-10-16T08:46:42;3.20;;;2.75;;
13698;SDS011;6921;53.642;9.956;2022-10-16T08:48:54;5.95;;;3.42;;
13698;SDS011;6921;53.642;9.956;2022-10-16T08:51:00;5.40;;;2.70;;
13698;SDS011;6921;53.642;9.956;2022-10-16T08:53:06;3.47;;;2.65;;
13698;SDS011;6921;53.642;9.956;2022-10-16T08:55:17;3.70;;;2.28;;
13698;SDS011;6921;53.642;9.956;2022-10-16T08:57:33;4.30;;;2.85;;
13698;SDS011;6921;53.642;9.956;2022-10-16T08:59:36;5.45;;;2.70;;
13698;SDS011;6921;53.642;9.956;2022-10-16T09:01:41;3.65;;;2.20;;
13698;SDS011;6921;53.642;9.956;2022-10-16T09:03:50;3.83;;;2.60;;
13698;SDS011;6921;53.642;9.956;2022-10-16T09:06:19;3.78;;;2.20;;
13698;SDS011;6921;53.642;9.956;2022-10-16T09:08:40;2.97;;;1.90;;
13698;SDS011;6921;53.642;9.956;2022-10-16T09:10:52;5.57;;;2.53;;
13698;SDS011;6921;53.642;9.956;2022-10-16T09:13:01;2.47;;;1.75;;
13698;SDS011;6921;53.642;9.956;2022-10-16T09:15:13;2.42;;;1.90;;
13698;SDS011;6921;53.642;9.956;2022-10-16T09:17:30;4.10;;;2.00;;
13698;SDS011;6921;53.642;9.956;2022-10-16T09:19:46;2.15;;;1.80;;
13698;SDS011;6921;53.642;9.956;2022-10-16T09:21:54;4.05;;;1.88;;
13698;SDS011;6921;53.642;9.956;2022-10-16T09:24:04;2.40;;;1.88;;
13698;SDS011;6921;53.642;9.956;2022-10-16T09:26:13;2.38;;;1.70;;
13698;SDS011;6921;53.642;9.956;2022-10-16T09:28:19;3.25;;;1.65;;
13698;SDS011;6921;53.642;9.956;2022-10-16T09:30:22;4.43;;;1.80;;
13698;SDS011;6921;53.642;9.956;2022-10-16T09:32:25;3.00;;;1.60;;
13698;SDS011;6921;53.642;9.956;2022-10-16T09:34:30;2.97;;;1.65;;
13698;SDS011;6921;53.642;9.956;2022-10-16T09:36:40;2.33;;;1.70;;
13698;SDS011;6921;53.642;9.956;2022-10-16T09:38:46;2.88;;;1.90;;
13698;SDS011;6921;53.642;9.956;2022-10-16T09:40:52;4.45;;;1.52;;
13698;SDS011;6921;53.642;9.956;2022-10-16T09:43:17;2.78;;;1.73;;
13698;SDS011;6921;53.642;9.956;2022-10-16T09:45:23;2.95;;;1.70;;
13698;SDS011;6921;53.642;9.956;2022-10-16T09:47:27;2.58;;;1.40;;
13698;SDS011;6921;53.642;9.956;2022-10-16T09:49:32;2.67;;;1.30;;
13698;SDS011;6921;53.642;9.956;2022-10-16T09:51:36;6.03;;;1.80;;
13698;SDS011;6921;53.642;9.956;2022-10-16T09:53:41;2.35;;;1.30;;
13698;SDS011;6921;53.642;9.956;2022-10-16T09:55:49;4.20;;;1.30;;
13698;SDS011;6921;53.642;9.956;2022-10-16T09:57:54;5.18;;;1.65;;
13698;SDS011;6921;53.642;9.956;2022-10-16T09:59:58;4.93;;;1.65;;
13698;SDS011;6921;53.642;9.956;2022-10-16T10:02:01;2.60;;;1.45;;
13698;SDS011;6921;53.642;9.956;2022-10-16T10:04:13;2.90;;;1.50;;
13698;SDS011;6921;53.642;9.956;2022-10-16T10:06:18;3.95;;;1.40;;
13698;SDS011;6921;53.642;9.956;2022-10-16T10:08:22;2.70;;;1.50;;
13698;SDS011;6921;53.642;9.956;2022-10-16T10:10:26;2.70;;;1.50;;
13698;SDS011;6921;53.642;9.956;2022-10-16T10:12:32;3.30;;;1.60;;
13698;SDS011;6921;53.642;9.956;2022-10-16T10:14:38;3.15;;;1.45;;
13698;SDS011;6921;53.642;9.956;2022-10-16T10:16:41;2.63;;;1.25;;
13698;SDS011;6921;53.642;9.956;2022-10-16T10:18:45;6.50;;;1.50;;
13698;SDS011;6921;53.642;9.956;2022-10-16T10:20:56;3.13;;;1.40;;
13698;SDS011;6921;53.642;9.956;2022-10-16T10:23:00;2.22;;;1.27;;
13698;SDS011;6921;53.642;9.956;2022-10-16T10:25:15;2.17;;;1.25;;
13698;SDS011;6921;53.642;9.956;2022-10-16T10:27:32;3.97;;;1.40;;
13698;SDS011;6921;53.642;9.956;2022-10-16T10:29:45;2.00;;;1.30;;
13698;SDS011;6921;53.642;9.956;2022-10-16T10:31:52;2.70;;;1.10;;
13698;SDS011;6921;53.642;9.956;2022-10-16T10:34:01;5.55;;;1.55;;
13698;SDS011;6921;53.642;9.956;2022-10-16T10:36:19;2.45;;;1.20;;
13698;SDS011;6921;53.642;9.956;2022-10-16T10:38:31;1.73;;;1.60;;
13698;SDS011;6921;53.642;9.956;2022-10-16T10:40:44;2.45;;;1.30;;
13698;SDS011;6921;53.642;9.956;2022-10-16T10:42:55;3.35;;;1.30;;
13698;SDS011;6921;53.642;9.956;2022-10-16T10:45:11;2.67;;;1.30;;
13698;SDS011;6921;53.642;9.956;2022-10-16T10:47:22;2.60;;;1.25;;
13698;SDS011;6921;53.642;9.956;2022-10-16T10:49:39;2.72;;;1.13;;
13698;SDS011;6921;53.642;9.956;2022-10-16T10:51:53;2.67;;;1.10;;
13698;SDS011;6921;53.642;9.956;2022-10-16T10:54:11;2.97;;;1.20;;
13698;SDS011;6921;53.642;9.956;2022-10-16T10:56:26;2.13;;;1.13;;
13698;SDS011;6921;53.642;9.956;2022-10-16T10:58:49;3.42;;;1.60;;
13698;SDS011;6921;53.642;9.956;2022-10-16T11:00:57;5.20;;;2.03;;
13698;SDS011;6921;53.642;9.956;2022-10-16T11:03:07;2.72;;;1.48;;
13698;SDS011;6921;53.642;9.956;2022-10-16T11:05:42;2.30;;;0.93;;
13698;SDS011;6921;53.642;9.956;2022-10-16T11:07:47;4.53;;;1.15;;
13698;SDS011;6921;53.642;9.956;2022-10-16T11:09:55;2.25;;;0.90;;
13698;SDS011;6921;53.642;9.956;2022-10-16T11:12:02;1.50;;;1.00;;
13698;SDS011;6921;53.642;9.956;2022-10-16T11:14:14;1.85;;;0.90;;
13698;SDS011;6921;53.642;9.956;2022-10-16T11:16:21;2.90;;;1.05;;
13698;SDS011;6921;53.642;9.956;2022-10-16T11:18:30;1.95;;;0.85;;
13698;SDS011;6921;53.642;9.956;2022-10-16T11:20:42;1.88;;;0.93;;
13698;SDS011;6921;53.642;9.956;2022-10-16T11:22:50;2.83;;;0.98;;
13698;SDS011;6921;53.642;9.956;2022-10-16T11:24:59;2.58;;;0.90;;
13698;SDS011;6921;53.642;9.956;2022-10-16T11:27:08;2.25;;;0.98;;
13698;SDS011;6921;53.642;9.956;2022-10-16T11:29:17;2.63;;;0.70;;
13698;SDS011;6921;53.642;9.956;2022-10-16T11:31:27;2.47;;;0.90;;
13698;SDS011;6921;53.642;9.956;2022-10-16T11:33:36;1.48;;;0.75;;
13698;SDS011;6921;53.642;9.956;2022-10-16T11:35:43;3.80;;;0.82;;
13698;SDS011;6921;53.642;9.956;2022-10-16T11:37:50;4.10;;;0.88;;
13698;SDS011;6921;53.642;9.956;2022-10-16T11:39:55;2.50;;;0.82;;
13698;SDS011;6921;53.642;9.956;2022-10-16T11:42:08;2.47;;;0.80;;
13698;SDS011;6921;53.642;9.956;2022-10-16T11:44:18;2.40;;;0.90;;
13698;SDS011;6921;53.642;9.956;2022-10-16T11:46:33;1.50;;;0.63;;
13698;SDS011;6921;53.642;9.956;2022-10-16T11:48:54;1.10;;;0.60;;
13698;SDS011;6921;53.642;9.956;2022-10-16T11:51:02;3.50;;;0.77;;
13698;SDS011;6921;53.642;9.956;2022-10-16T11:53:13;1.88;;;0.90;;
13698;SDS011;6921;53.642;9.956;2022-10-16T11:55:20;2.00;;;0.85;;
13698;SDS011;6921;53.642;9.956;2022-10-16T11:57:27;1.48;;;0.73;;
13698;SDS011;6921;53.642;9.956;2022-10-16T11:59:36;1.08;;;0.63;;
13698;SDS011;6921;53.642;9.956;2022-10-16T12:01:46;2.92;;;1.02;;
13698;SDS011;6921;53.642;9.956;2022-10-16T12:03:58;3.28;;;0.90;;
13698;SDS011;6921;53.642;9.956;2022-10-16T12:06:10;3.80;;;1.30;;
13698;SDS011;6921;53.642;9.956;2022-10-16T12:08:19;4.53;;;1.35;;
13698;SDS011;6921;53.642;9.956;2022-10-16T12:10:23;5.13;;;1.05;;
13698;SDS011;6921;53.642;9.956;2022-10-16T12:12:37;1.77;;;0.80;;
13698;SDS011;6921;53.642;9.956;2022-10-16T12:14:42;3.63;;;0.80;;
13698;SDS011;6921;53.642;9.956;2022-10-16T12:19:28;3.83;;;1.00;;
13698;SDS011;6921;53.642;9.956;2022-10-16T12:21:32;3.45;;;1.08;;
13698;SDS011;6921;53.642;9.956;2022-10-16T12:23:36;2.53;;;1.10;;
13698;SDS011;6921;53.642;9.956;2022-10-16T12:25:40;2.97;;;1.08;;
13698;SDS011;6921;53.642;9.956;2022-10-16T12:27:53;1.35;;;0.90;;
13698;SDS011;6921;53.642;9.956;2022-10-16T12:29:59;3.60;;;0.95;;
13698;SDS011;6921;53.642;9.956;2022-10-16T12:32:05;5.40;;;1.17;;
13698;SDS011;6921;53.642;9.956;2022-10-16T12:34:42;2.65;;;1.05;;
13698;SDS011;6921;53.642;9.956;2022-10-16T12:36:45;5.53;;;1.25;;
13698;SDS011;6921;53.642;9.956;2022-10-16T12:38:49;3.15;;;0.90;;
13698;SDS011;6921;53.642;9.956;2022-10-16T12:40:58;2.53;;;0.63;;
13698;SDS011;6921;53.642;9.956;2022-10-16T12:45:41;2.58;;;0.88;;
13698;SDS011;6921;53.642;9.956;2022-10-16T12:47:48;3.13;;;0.85;;
13698;SDS011;6921;53.642;9.956;2022-10-16T12:49:54;3.80;;;0.90;;
13698;SDS011;6921;53.642;9.956;2022-10-16T12:51:58;3.78;;;0.95;;
13698;SDS011;6921;53.642;9.956;2022-10-16T12:54:02;4.43;;;1.02;;
13698;SDS011;6921;53.642;9.956;2022-10-16T12:56:09;3.65;;;0.90;;